sensor_id;sensor_type;location;lat;lon;timestamp;temperature;humidity
11647;DHT22;5880;52.342;9.662;2023-07-13T00:01:51;22.20;50.50
11647;DHT22;5880;52.342;9.662;2023-07-13T00:04:18;22.20;50.30
11647;DHT22;5880;52.342;9.662;2023-07-13T00:06:45;22.20;50.30
11647;DHT22;5880;52.342;9.662;2023-07-13T00:09:16;22.20;50.80
11647;DHT22;5880;52.342;9.662;2023-07-13T00:11:43;22.10;51.50
11647;DHT22;5880;52.342;9.662;2023-07-13T00:14:10;22.10;51.10
11647;DHT22;5880;52.342;9.662;2023-07-13T00:16:37;22.10;51.30
11647;DHT22;5880;52.342;9.662;2023-07-13T00:19:06;22.00;51.50
11647;DHT22;5880;52.342;9.662;2023-07-13T00:21:32;22.00;51.40
11647;DHT22;5880;52.342;9.662;2023-07-13T00:23:57;21.90;51.70
11647;DHT22;5880;52.342;9.662;2023-07-13T00:26:23;21.90;52.00
11647;DHT22;5880;52.342;9.662;2023-07-13T00:28:49;21.90;52.10
11647;DHT22;5880;52.342;9.662;2023-07-13T00:31:15;21.90;52.30
11647;DHT22;5880;52.342;9.662;2023-07-13T00:33:41;21.90;52.40
11647;DHT22;5880;52.342;9.662;2023-07-13T00:36:09;21.80;52.50
11647;DHT22;5880;52.342;9.662;2023-07-13T00:38:35;21.80;52.90
11647;DHT22;5880;52.342;9.662;2023-07-13T00:41:02;21.80;52.90
11647;DHT22;5880;52.342;9.662;2023-07-13T00:43:29;21.80;53.40
11647;DHT22;5880;52.342;9.662;2023-07-13T00:48:25;21.80;53.10
11647;DHT22;5880;52.342;9.662;2023-07-13T00:50:58;21.80;53.50
11647;DHT22;5880;52.342;9.662;2023-07-13T00:53:27;21.80;53.50
11647;DHT22;5880;52.342;9.662;2023-07-13T00:55:57;21.80;53.50
11647;DHT22;5880;52.342;9.662;2023-07-13T00:58:26;21.80;53.50
11647;DHT22;5880;52.342;9.662;2023-07-13T01:00:53;21.80;53.70
11647;DHT22;5880;52.342;9.662;2023-07-13T01:03:18;21.80;53.50
11647;DHT22;5880;52.342;9.662;2023-07-13T01:05:47;21.80;53.60
11647;DHT22;5880;52.342;9.662;2023-07-13T01:08:15;21.70;54.10
11647;DHT22;5880;52.342;9.662;2023-07-13T01:10:41;21.70;53.50
11647;DHT22;5880;52.342;9.662;2023-07-13T01:13:15;21.70;53.50
11647;DHT22;5880;52.342;9.662;2023-07-13T01:15:43;21.60;53.30
11647;DHT22;5880;52.342;9.662;2023-07-13T01:18:14;21.60;53.70
11647;DHT22;5880;52.342;9.662;2023-07-13T01:20:59;21.60;53.70
11647;DHT22;5880;52.342;9.662;2023-07-13T01:23:28;21.50;54.40
11647;DHT22;5880;52.342;9.662;2023-07-13T01:25:55;21.40;53.40
11647;DHT22;5880;52.342;9.662;2023-07-13T01:28:22;21.40;53.30
11647;DHT22;5880;52.342;9.662;2023-07-13T01:30:52;21.40;53.50
11647;DHT22;5880;52.342;9.662;2023-07-13T01:33:19;21.30;53.30
11647;DHT22;5880;52.342;9.662;2023-07-13T01:35:46;21.20;53.30
11647;DHT22;5880;52.342;9.662;2023-07-13T01:38:15;21.20;53.60
11647;DHT22;5880;52.342;9.662;2023-07-13T01:40:43;21.10;54.20
11647;DHT22;5880;52.342;9.662;2023-07-13T01:43:09;21.00;54.00
11647;DHT22;5880;52.342;9.662;2023-07-13T01:45:35;21.00;54.00
11647;DHT22;5880;52.342;9.662;2023-07-13T01:48:01;20.90;54.00
11647;DHT22;5880;52.342;9.662;2023-07-13T01:50:27;20.90;54.10
11647;DHT22;5880;52.342;9.662;2023-07-13T01:52:53;20.80;54.20
11647;DHT22;5880;52.342;9.662;2023-07-13T01:55:20;20.80;54.40
11647;DHT22;5880;52.342;9.662;2023-07-13T01:57:45;20.80;54.50
11647;DHT22;5880;52.342;9.662;2023-07-13T02:00:12;20.70;54.60
11647;DHT22;5880;52.342;9.662;2023-07-13T02:02:39;20.60;54.60
11647;DHT22;5880;52.342;9.662;2023-07-13T02:05:05;20.60;54.60
11647;DHT22;5880;52.342;9.662;2023-07-13T02:07:31;20.60;54.60
11647;DHT22;5880;52.342;9.662;2023-07-13T02:09:57;20.60;54.80
11647;DHT22;5880;52.342;9.662;2023-07-13T02:12:23;20.50;54.90
11647;DHT22;5880;52.342;9.662;2023-07-13T02:14:48;20.50;55.00
11647;DHT22;5880;52.342;9.662;2023-07-13T02:17:14;20.40;55.00
11647;DHT22;5880;52.342;9.662;2023-07-13T02:19:40;20.40;55.10
11647;DHT22;5880;52.342;9.662;2023-07-13T02:22:06;20.50;55.20
11647;DHT22;5880;52.342;9.662;2023-07-13T02:24:32;20.40;55.20
11647;DHT22;5880;52.342;9.662;2023-07-13T02:26:57;20.40;55.30
11647;DHT22;5880;52.342;9.662;2023-07-13T02:29:23;20.30;55.20
11647;DHT22;5880;52.342;9.662;2023-07-13T02:31:49;20.30;55.10
11647;DHT22;5880;52.342;9.662;2023-07-13T02:34:14;20.40;55.20
11647;DHT22;5880;52.342;9.662;2023-07-13T02:36:40;20.30;55.40
11647;DHT22;5880;52.342;9.662;2023-07-13T02:39:06;20.30;55.40
11647;DHT22;5880;52.342;9.662;2023-07-13T02:41:32;20.30;55.60
11647;DHT22;5880;52.342;9.662;2023-07-13T02:43:59;20.30;55.50
11647;DHT22;5880;52.342;9.662;2023-07-13T02:46:32;20.30;55.80
11647;DHT22;5880;52.342;9.662;2023-07-13T02:49:00;20.30;57.00
11647;DHT22;5880;52.342;9.662;2023-07-13T02:51:27;20.20;55.60
11647;DHT22;5880;52.342;9.662;2023-07-13T02:53:52;20.20;55.50
11647;DHT22;5880;52.342;9.662;2023-07-13T02:56:27;20.20;55.40
11647;DHT22;5880;52.342;9.662;2023-07-13T02:58:54;20.20;56.40
11647;DHT22;5880;52.342;9.662;2023-07-13T03:01:21;20.20;55.40
11647;DHT22;5880;52.342;9.662;2023-07-13T03:03:48;20.20;55.60
11647;DHT22;5880;52.342;9.662;2023-07-13T03:06:14;20.10;55.70
11647;DHT22;5880;52.342;9.662;2023-07-13T03:08:42;20.10;55.80
11647;DHT22;5880;52.342;9.662;2023-07-13T03:11:12;20.10;55.50
11647;DHT22;5880;52.342;9.662;2023-07-13T03:13:40;20.10;55.50
11647;DHT22;5880;52.342;9.662;2023-07-13T03:16:09;20.20;55.60
11647;DHT22;5880;52.342;9.662;2023-07-13T03:18:36;20.10;55.70
11647;DHT22;5880;52.342;9.662;2023-07-13T03:21:03;20.10;56.00
11647;DHT22;5880;52.342;9.662;2023-07-13T03:23:30;20.10;56.00
11647;DHT22;5880;52.342;9.662;2023-07-13T03:26:11;20.10;55.90
11647;DHT22;5880;52.342;9.662;2023-07-13T03:28:39;20.10;56.80
11647;DHT22;5880;52.342;9.662;2023-07-13T03:31:10;20.10;55.90
11647;DHT22;5880;52.342;9.662;2023-07-13T03:33:41;20.10;56.00
11647;DHT22;5880;52.342;9.662;2023-07-13T03:36:12;20.10;55.60
11647;DHT22;5880;52.342;9.662;2023-07-13T03:38:41;20.10;55.90
11647;DHT22;5880;52.342;9.662;2023-07-13T03:41:07;20.10;55.60
11647;DHT22;5880;52.342;9.662;2023-07-13T03:43:32;20.10;55.60
11647;DHT22;5880;52.342;9.662;2023-07-13T03:45:58;20.10;55.60
11647;DHT22;5880;52.342;9.662;2023-07-13T03:48:24;20.00;55.90
11647;DHT22;5880;52.342;9.662;2023-07-13T03:50:49;20.10;56.20
11647;DHT22;5880;52.342;9.662;2023-07-13T03:53:15;20.10;56.00
11647;DHT22;5880;52.342;9.662;2023-07-13T03:55:41;20.10;56.10
11647;DHT22;5880;52.342;9.662;2023-07-13T03:58:31;20.10;56.10
11647;DHT22;5880;52.342;9.662;2023-07-13T04:00:58;20.10;57.50
11647;DHT22;5880;52.342;9.662;2023-07-13T04:03:25;20.10;56.20
11647;DHT22;5880;52.342;9.662;2023-07-13T04:05:53;20.20;55.90
11647;DHT22;5880;52.342;9.662;2023-07-13T04:08:20;20.20;56.30
11647;DHT22;5880;52.342;9.662;2023-07-13T04:10:46;20.30;56.40
11647;DHT22;5880;52.342;9.662;2023-07-13T04:13:11;20.30;56.60
11647;DHT22;5880;52.342;9.662;2023-07-13T04:15:38;20.40;56.20
11647;DHT22;5880;52.342;9.662;2023-07-13T04:18:05;20.40;56.00
11647;DHT22;5880;52.342;9.662;2023-07-13T04:20:30;20.50;56.40
11647;DHT22;5880;52.342;9.662;2023-07-13T04:22:56;20.50;56.10
11647;DHT22;5880;52.342;9.662;2023-07-13T04:25:22;20.50;55.70
11647;DHT22;5880;52.342;9.662;2023-07-13T04:27:49;20.60;55.50
11647;DHT22;5880;52.342;9.662;2023-07-13T04:30:15;20.60;55.40
11647;DHT22;5880;52.342;9.662;2023-07-13T04:32:40;20.60;55.10
11647;DHT22;5880;52.342;9.662;2023-07-13T04:35:06;20.60;54.90
11647;DHT22;5880;52.342;9.662;2023-07-13T04:37:32;20.60;54.90
11647;DHT22;5880;52.342;9.662;2023-07-13T04:39:58;20.60;55.50
11647;DHT22;5880;52.342;9.662;2023-07-13T04:42:24;20.60;55.70
11647;DHT22;5880;52.342;9.662;2023-07-13T04:44:50;20.60;55.60
11647;DHT22;5880;52.342;9.662;2023-07-13T04:47:17;20.60;55.80
11647;DHT22;5880;52.342;9.662;2023-07-13T04:49:43;20.70;55.90
11647;DHT22;5880;52.342;9.662;2023-07-13T04:52:09;20.70;56.60
11647;DHT22;5880;52.342;9.662;2023-07-13T04:54:35;20.70;55.80
11647;DHT22;5880;52.342;9.662;2023-07-13T04:57:02;20.70;55.90
11647;DHT22;5880;52.342;9.662;2023-07-13T04:59:34;20.80;56.30
11647;DHT22;5880;52.342;9.662;2023-07-13T05:02:00;20.80;56.40
11647;DHT22;5880;52.342;9.662;2023-07-13T05:04:26;20.80;56.70
11647;DHT22;5880;52.342;9.662;2023-07-13T05:06:52;20.90;57.00
11647;DHT22;5880;52.342;9.662;2023-07-13T05:09:18;21.00;57.30
11647;DHT22;5880;52.342;9.662;2023-07-13T05:11:44;21.10;57.30
11647;DHT22;5880;52.342;9.662;2023-07-13T05:14:10;21.10;57.00
11647;DHT22;5880;52.342;9.662;2023-07-13T05:16:36;21.20;57.00
11647;DHT22;5880;52.342;9.662;2023-07-13T05:19:02;21.30;57.20
11647;DHT22;5880;52.342;9.662;2023-07-13T05:21:28;21.40;56.60
11647;DHT22;5880;52.342;9.662;2023-07-13T05:23:54;21.40;56.40
11647;DHT22;5880;52.342;9.662;2023-07-13T05:26:20;21.50;56.00
11647;DHT22;5880;52.342;9.662;2023-07-13T05:28:46;21.60;55.60
11647;DHT22;5880;52.342;9.662;2023-07-13T05:31:12;21.60;55.50
11647;DHT22;5880;52.342;9.662;2023-07-13T05:33:39;21.60;55.50
11647;DHT22;5880;52.342;9.662;2023-07-13T05:36:04;21.70;55.80
11647;DHT22;5880;52.342;9.662;2023-07-13T05:38:30;21.80;56.20
11647;DHT22;5880;52.342;9.662;2023-07-13T05:40:57;21.90;56.30
11647;DHT22;5880;52.342;9.662;2023-07-13T05:43:23;22.00;56.40
11647;DHT22;5880;52.342;9.662;2023-07-13T05:45:49;22.10;57.00
11647;DHT22;5880;52.342;9.662;2023-07-13T05:48:18;22.30;56.90
11647;DHT22;5880;52.342;9.662;2023-07-13T05:50:43;22.50;56.60
11647;DHT22;5880;52.342;9.662;2023-07-13T05:53:09;22.70;56.60
11647;DHT22;5880;52.342;9.662;2023-07-13T05:55:35;23.00;57.00
11647;DHT22;5880;52.342;9.662;2023-07-13T05:58:01;23.10;56.70
11647;DHT22;5880;52.342;9.662;2023-07-13T06:00:27;23.40;56.50
11647;DHT22;5880;52.342;9.662;2023-07-13T06:02:53;23.70;55.60
11647;DHT22;5880;52.342;9.662;2023-07-13T06:05:18;23.90;54.80
11647;DHT22;5880;52.342;9.662;2023-07-13T06:07:44;24.00;54.30
11647;DHT22;5880;52.342;9.662;2023-07-13T06:10:10;24.20;54.10
11647;DHT22;5880;52.342;9.662;2023-07-13T06:12:36;24.40;54.30
11647;DHT22;5880;52.342;9.662;2023-07-13T06:15:01;24.60;54.30
11647;DHT22;5880;52.342;9.662;2023-07-13T06:17:28;24.80;53.20
11647;DHT22;5880;52.342;9.662;2023-07-13T06:19:53;25.00;53.00
11647;DHT22;5880;52.342;9.662;2023-07-13T06:22:19;25.10;52.20
11647;DHT22;5880;52.342;9.662;2023-07-13T06:24:45;25.30;51.40
11647;DHT22;5880;52.342;9.662;2023-07-13T06:27:10;25.40;51.70
11647;DHT22;5880;52.342;9.662;2023-07-13T06:29:36;25.70;53.30
11647;DHT22;5880;52.342;9.662;2023-07-13T06:32:02;26.00;52.90
11647;DHT22;5880;52.342;9.662;2023-07-13T06:34:27;26.30;52.70
11647;DHT22;5880;52.342;9.662;2023-07-13T06:36:53;26.60;50.70
11647;DHT22;5880;52.342;9.662;2023-07-13T06:39:19;26.80;50.30
11647;DHT22;5880;52.342;9.662;2023-07-13T06:41:44;27.00;49.70
11647;DHT22;5880;52.342;9.662;2023-07-13T06:44:10;27.20;48.60
11647;DHT22;5880;52.342;9.662;2023-07-13T06:46:35;27.40;48.70
11647;DHT22;5880;52.342;9.662;2023-07-13T06:49:01;27.60;49.60
11647;DHT22;5880;52.342;9.662;2023-07-13T06:51:27;27.90;49.20
11647;DHT22;5880;52.342;9.662;2023-07-13T06:53:53;28.20;50.40
11647;DHT22;5880;52.342;9.662;2023-07-13T06:56:19;28.50;50.70
11647;DHT22;5880;52.342;9.662;2023-07-13T06:58:45;28.90;48.30
11647;DHT22;5880;52.342;9.662;2023-07-13T07:01:11;29.20;47.20
11647;DHT22;5880;52.342;9.662;2023-07-13T07:03:36;29.40;46.40
11647;DHT22;5880;52.342;9.662;2023-07-13T07:06:11;29.70;45.10
11647;DHT22;5880;52.342;9.662;2023-07-13T07:08:40;29.80;42.30
11647;DHT22;5880;52.342;9.662;2023-07-13T07:11:08;29.70;41.70
11647;DHT22;5880;52.342;9.662;2023-07-13T07:13:36;29.70;40.70
11647;DHT22;5880;52.342;9.662;2023-07-13T07:16:02;29.60;39.80
11647;DHT22;5880;52.342;9.662;2023-07-13T07:18:28;29.30;39.50
11647;DHT22;5880;52.342;9.662;2023-07-13T07:20:54;29.00;39.20
11647;DHT22;5880;52.342;9.662;2023-07-13T07:23:19;28.60;38.70
11647;DHT22;5880;52.342;9.662;2023-07-13T07:25:45;28.30;38.90
11647;DHT22;5880;52.342;9.662;2023-07-13T07:28:14;28.00;39.00
11647;DHT22;5880;52.342;9.662;2023-07-13T07:30:46;27.80;38.70
11647;DHT22;5880;52.342;9.662;2023-07-13T07:33:12;27.40;39.90
11647;DHT22;5880;52.342;9.662;2023-07-13T07:35:38;27.30;39.60
11647;DHT22;5880;52.342;9.662;2023-07-13T07:38:04;26.70;39.20
11647;DHT22;5880;52.342;9.662;2023-07-13T07:40:30;26.40;39.30
11647;DHT22;5880;52.342;9.662;2023-07-13T07:42:56;26.10;40.00
11647;DHT22;5880;52.342;9.662;2023-07-13T07:45:22;25.90;40.20
11647;DHT22;5880;52.342;9.662;2023-07-13T07:47:48;25.70;40.80
11647;DHT22;5880;52.342;9.662;2023-07-13T07:50:15;25.60;41.90
11647;DHT22;5880;52.342;9.662;2023-07-13T07:52:41;25.50;41.70
11647;DHT22;5880;52.342;9.662;2023-07-13T07:55:07;25.40;42.60
11647;DHT22;5880;52.342;9.662;2023-07-13T07:57:33;25.40;44.20
11647;DHT22;5880;52.342;9.662;2023-07-13T07:59:59;25.40;43.30
11647;DHT22;5880;52.342;9.662;2023-07-13T08:02:25;25.40;43.50
11647;DHT22;5880;52.342;9.662;2023-07-13T08:04:51;25.40;43.10
11647;DHT22;5880;52.342;9.662;2023-07-13T08:07:17;25.40;43.20
11647;DHT22;5880;52.342;9.662;2023-07-13T08:09:43;25.50;43.10
11647;DHT22;5880;52.342;9.662;2023-07-13T08:12:09;25.60;43.00
11647;DHT22;5880;52.342;9.662;2023-07-13T08:14:35;25.60;42.90
11647;DHT22;5880;52.342;9.662;2023-07-13T08:17:01;25.70;43.20
11647;DHT22;5880;52.342;9.662;2023-07-13T08:19:26;25.70;42.60
11647;DHT22;5880;52.342;9.662;2023-07-13T08:21:52;25.80;42.80
11647;DHT22;5880;52.342;9.662;2023-07-13T08:24:17;25.90;42.60
11647;DHT22;5880;52.342;9.662;2023-07-13T08:26:44;25.90;42.90
11647;DHT22;5880;52.342;9.662;2023-07-13T08:29:11;25.90;42.90
11647;DHT22;5880;52.342;9.662;2023-07-13T08:31:37;25.90;43.20
11647;DHT22;5880;52.342;9.662;2023-07-13T08:34:03;26.00;43.80
11647;DHT22;5880;52.342;9.662;2023-07-13T08:36:29;26.00;43.20
11647;DHT22;5880;52.342;9.662;2023-07-13T08:38:54;26.00;42.90
11647;DHT22;5880;52.342;9.662;2023-07-13T08:41:21;26.00;43.10
11647;DHT22;5880;52.342;9.662;2023-07-13T08:43:56;26.00;43.10
11647;DHT22;5880;52.342;9.662;2023-07-13T08:46:37;26.00;43.40
11647;DHT22;5880;52.342;9.662;2023-07-13T08:49:08;25.90;42.30
11647;DHT22;5880;52.342;9.662;2023-07-13T08:51:46;25.90;42.70
11647;DHT22;5880;52.342;9.662;2023-07-13T08:57:14;25.90;42.30
11647;DHT22;5880;52.342;9.662;2023-07-13T08:59:43;25.80;42.70
11647;DHT22;5880;52.342;9.662;2023-07-13T09:02:39;25.80;42.90
11647;DHT22;5880;52.342;9.662;2023-07-13T09:05:25;25.80;42.30
11647;DHT22;5880;52.342;9.662;2023-07-13T09:08:16;25.80;42.30
11647;DHT22;5880;52.342;9.662;2023-07-13T09:10:47;25.70;42.10
11647;DHT22;5880;52.342;9.662;2023-07-13T09:14:26;25.60;42.70
11647;DHT22;5880;52.342;9.662;2023-07-13T09:17:17;25.70;42.50
11647;DHT22;5880;52.342;9.662;2023-07-13T09:19:51;25.60;42.20
11647;DHT22;5880;52.342;9.662;2023-07-13T09:22:24;25.60;42.80
11647;DHT22;5880;52.342;9.662;2023-07-13T09:25:03;25.60;43.10
11647;DHT22;5880;52.342;9.662;2023-07-13T09:27:40;25.50;43.10
11647;DHT22;5880;52.342;9.662;2023-07-13T09:32:41;25.50;43.30
11647;DHT22;5880;52.342;9.662;2023-07-13T09:35:17;25.50;43.40
11647;DHT22;5880;52.342;9.662;2023-07-13T09:37:46;25.50;43.70
11647;DHT22;5880;52.342;9.662;2023-07-13T09:40:21;25.50;43.60
11647;DHT22;5880;52.342;9.662;2023-07-13T09:42:53;25.50;44.00
11647;DHT22;5880;52.342;9.662;2023-07-13T09:45:28;25.60;43.10
11647;DHT22;5880;52.342;9.662;2023-07-13T09:48:03;25.60;42.30
11647;DHT22;5880;52.342;9.662;2023-07-13T09:50:31;25.60;43.20
11647;DHT22;5880;52.342;9.662;2023-07-13T09:52:57;25.50;43.20
11647;DHT22;5880;52.342;9.662;2023-07-13T09:55:28;25.50;43.70
11647;DHT22;5880;52.342;9.662;2023-07-13T10:00:43;25.50;43.00
11647;DHT22;5880;52.342;9.662;2023-07-13T10:03:22;25.50;43.10
11647;DHT22;5880;52.342;9.662;2023-07-13T10:05:52;25.60;42.70
11647;DHT22;5880;52.342;9.662;2023-07-13T10:08:27;25.50;43.10
11647;DHT22;5880;52.342;9.662;2023-07-13T10:11:00;25.50;42.80
11647;DHT22;5880;52.342;9.662;2023-07-13T10:13:35;25.50;43.30
11647;DHT22;5880;52.342;9.662;2023-07-13T10:16:07;25.50;43.70
11647;DHT22;5880;52.342;9.662;2023-07-13T10:18:46;25.50;43.70
11647;DHT22;5880;52.342;9.662;2023-07-13T10:21:17;25.50;44.50
11647;DHT22;5880;52.342;9.662;2023-07-13T10:23:51;25.60;43.90
11647;DHT22;5880;52.342;9.662;2023-07-13T10:26:32;25.50;43.70
11647;DHT22;5880;52.342;9.662;2023-07-13T10:29:05;25.70;42.90
11647;DHT22;5880;52.342;9.662;2023-07-13T10:31:37;25.80;42.70
11647;DHT22;5880;52.342;9.662;2023-07-13T10:34:04;25.80;42.90
11647;DHT22;5880;52.342;9.662;2023-07-13T10:36:41;25.90;42.40
11647;DHT22;5880;52.342;9.662;2023-07-13T10:39:24;26.00;42.40
11647;DHT22;5880;52.342;9.662;2023-07-13T10:42:03;26.10;42.50
11647;DHT22;5880;52.342;9.662;2023-07-13T10:44:35;26.10;42.50
11647;DHT22;5880;52.342;9.662;2023-07-13T10:47:03;26.20;42.60
11647;DHT22;5880;52.342;9.662;2023-07-13T10:49:34;26.30;42.60
11647;DHT22;5880;52.342;9.662;2023-07-13T10:52:02;26.30;41.10
11647;DHT22;5880;52.342;9.662;2023-07-13T10:54:32;26.40;40.70
11647;DHT22;5880;52.342;9.662;2023-07-13T10:57:16;26.40;41.70
11647;DHT22;5880;52.342;9.662;2023-07-13T10:59:49;26.50;41.10
11647;DHT22;5880;52.342;9.662;2023-07-13T11:02:42;26.60;40.80
11647;DHT22;5880;52.342;9.662;2023-07-13T11:05:29;26.60;40.60
11647;DHT22;5880;52.342;9.662;2023-07-13T11:10:58;26.80;41.80
11647;DHT22;5880;52.342;9.662;2023-07-13T11:13:55;26.80;41.50
11647;DHT22;5880;52.342;9.662;2023-07-13T11:24:50;27.10;41.40
11647;DHT22;5880;52.342;9.662;2023-07-13T11:27:45;27.00;39.80
11647;DHT22;5880;52.342;9.662;2023-07-13T11:33:14;27.20;39.10
11647;DHT22;5880;52.342;9.662;2023-07-13T11:36:07;27.30;39.30
11647;DHT22;5880;52.342;9.662;2023-07-13T11:38:45;27.30;37.50
11647;DHT22;5880;52.342;9.662;2023-07-13T11:41:26;27.40;38.50
11647;DHT22;5880;52.342;9.662;2023-07-13T11:44:12;27.30;39.60
11647;DHT22;5880;52.342;9.662;2023-07-13T11:46:45;27.30;38.00
11647;DHT22;5880;52.342;9.662;2023-07-13T11:49:17;27.20;39.30
11647;DHT22;5880;52.342;9.662;2023-07-13T11:51:44;27.20;39.20
11647;DHT22;5880;52.342;9.662;2023-07-13T11:56:49;27.20;39.20
11647;DHT22;5880;52.342;9.662;2023-07-13T11:59:16;27.20;39.30
11647;DHT22;5880;52.342;9.662;2023-07-13T12:01:45;27.20;39.10
11647;DHT22;5880;52.342;9.662;2023-07-13T12:04:25;27.20;39.00
11647;DHT22;5880;52.342;9.662;2023-07-13T12:07:03;27.30;39.00
11647;DHT22;5880;52.342;9.662;2023-07-13T12:09:33;27.40;38.90
11647;DHT22;5880;52.342;9.662;2023-07-13T12:12:02;27.30;38.90
11647;DHT22;5880;52.342;9.662;2023-07-13T12:14:28;27.40;39.00
11647;DHT22;5880;52.342;9.662;2023-07-13T12:16:55;27.40;38.70
11647;DHT22;5880;52.342;9.662;2023-07-13T12:19:28;27.40;38.50
11647;DHT22;5880;52.342;9.662;2023-07-13T12:21:57;27.40;38.00
11647;DHT22;5880;52.342;9.662;2023-07-13T12:24:25;27.30;38.50
11647;DHT22;5880;52.342;9.662;2023-07-13T12:27:03;27.20;37.90
11647;DHT22;5880;52.342;9.662;2023-07-13T12:29:31;27.20;38.10
11647;DHT22;5880;52.342;9.662;2023-07-13T12:31:59;27.10;38.20
11647;DHT22;5880;52.342;9.662;2023-07-13T12:34:26;27.10;38.50
11647;DHT22;5880;52.342;9.662;2023-07-13T12:37:12;27.00;38.50
11647;DHT22;5880;52.342;9.662;2023-07-13T12:39:47;27.00;37.60
11647;DHT22;5880;52.342;9.662;2023-07-13T12:42:27;27.00;38.20
11647;DHT22;5880;52.342;9.662;2023-07-13T12:45:17;27.00;37.50
11647;DHT22;5880;52.342;9.662;2023-07-13T12:47:48;27.00;37.10
11647;DHT22;5880;52.342;9.662;2023-07-13T12:50:22;27.00;37.10
11647;DHT22;5880;52.342;9.662;2023-07-13T12:52:59;26.90;37.00
11647;DHT22;5880;52.342;9.662;2023-07-13T12:55:29;26.90;37.50
11647;DHT22;5880;52.342;9.662;2023-07-13T12:57:59;26.80;37.50
11647;DHT22;5880;52.342;9.662;2023-07-13T13:03:01;26.60;39.70
11647;DHT22;5880;52.342;9.662;2023-07-13T13:05:32;26.40;40.00
11647;DHT22;5880;52.342;9.662;2023-07-13T13:07:59;26.20;40.70
11647;DHT22;5880;52.342;9.662;2023-07-13T13:10:25;26.00;41.10
11647;DHT22;5880;52.342;9.662;2023-07-13T13:12:52;25.70;41.10
11647;DHT22;5880;52.342;9.662;2023-07-13T13:15:18;25.40;42.80
11647;DHT22;5880;52.342;9.662;2023-07-13T13:17:44;25.30;43.10
11647;DHT22;5880;52.342;9.662;2023-07-13T13:20:20;25.10;43.90
11647;DHT22;5880;52.342;9.662;2023-07-13T13:22:47;24.90;45.30
11647;DHT22;5880;52.342;9.662;2023-07-13T13:25:14;24.80;44.40
11647;DHT22;5880;52.342;9.662;2023-07-13T13:27:41;24.60;44.50
11647;DHT22;5880;52.342;9.662;2023-07-13T13:30:12;24.50;44.80
11647;DHT22;5880;52.342;9.662;2023-07-13T13:32:44;24.40;47.70
11647;DHT22;5880;52.342;9.662;2023-07-13T13:35:18;24.30;46.80
11647;DHT22;5880;52.342;9.662;2023-07-13T13:37:46;24.30;48.20
11647;DHT22;5880;52.342;9.662;2023-07-13T13:40:19;24.20;47.70
11647;DHT22;5880;52.342;9.662;2023-07-13T13:42:46;24.10;47.00
11647;DHT22;5880;52.342;9.662;2023-07-13T13:45:12;24.00;46.90
11647;DHT22;5880;52.342;9.662;2023-07-13T13:47:39;23.90;46.80
11647;DHT22;5880;52.342;9.662;2023-07-13T13:50:17;23.80;47.40
11647;DHT22;5880;52.342;9.662;2023-07-13T13:52:49;23.70;49.70
11647;DHT22;5880;52.342;9.662;2023-07-13T13:55:19;23.60;48.30
11647;DHT22;5880;52.342;9.662;2023-07-13T13:57:47;23.50;49.70
11647;DHT22;5880;52.342;9.662;2023-07-13T14:00:14;23.50;49.00
11647;DHT22;5880;52.342;9.662;2023-07-13T14:02:45;23.40;49.10
11647;DHT22;5880;52.342;9.662;2023-07-13T14:05:15;23.40;49.80
11647;DHT22;5880;52.342;9.662;2023-07-13T14:07:45;23.40;49.50
11647;DHT22;5880;52.342;9.662;2023-07-13T14:10:14;23.40;49.00
11647;DHT22;5880;52.342;9.662;2023-07-13T14:12:47;23.30;49.80
11647;DHT22;5880;52.342;9.662;2023-07-13T14:15:27;23.30;51.80
11647;DHT22;5880;52.342;9.662;2023-07-13T14:17:56;23.40;53.00
11647;DHT22;5880;52.342;9.662;2023-07-13T14:20:24;23.40;52.20
11647;DHT22;5880;52.342;9.662;2023-07-13T14:22:54;23.50;52.10
11647;DHT22;5880;52.342;9.662;2023-07-13T14:25:20;23.60;53.40
11647;DHT22;5880;52.342;9.662;2023-07-13T14:27:49;23.60;52.30
11647;DHT22;5880;52.342;9.662;2023-07-13T14:30:21;23.70;52.80
11647;DHT22;5880;52.342;9.662;2023-07-13T14:32:47;23.80;52.50
11647;DHT22;5880;52.342;9.662;2023-07-13T14:35:16;23.80;51.70
11647;DHT22;5880;52.342;9.662;2023-07-13T14:37:46;23.80;51.10
11647;DHT22;5880;52.342;9.662;2023-07-13T14:40:17;23.80;50.60
11647;DHT22;5880;52.342;9.662;2023-07-13T14:42:47;23.70;51.10
11647;DHT22;5880;52.342;9.662;2023-07-13T14:45:18;23.70;50.10
11647;DHT22;5880;52.342;9.662;2023-07-13T14:47:46;23.50;50.00
11647;DHT22;5880;52.342;9.662;2023-07-13T14:50:31;23.30;49.70
11647;DHT22;5880;52.342;9.662;2023-07-13T14:52:58;23.30;50.20
11647;DHT22;5880;52.342;9.662;2023-07-13T14:55:23;23.00;49.50
11647;DHT22;5880;52.342;9.662;2023-07-13T14:57:51;22.80;49.40
11647;DHT22;5880;52.342;9.662;2023-07-13T15:00:19;22.60;49.70
11647;DHT22;5880;52.342;9.662;2023-07-13T15:02:53;22.50;50.30
11647;DHT22;5880;52.342;9.662;2023-07-13T15:05:25;22.30;51.00
11647;DHT22;5880;52.342;9.662;2023-07-13T15:08:00;22.20;50.80
11647;DHT22;5880;52.342;9.662;2023-07-13T15:10:29;22.10;51.20
11647;DHT22;5880;52.342;9.662;2023-07-13T15:13:15;22.10;51.10
11647;DHT22;5880;52.342;9.662;2023-07-13T15:15:48;21.90;52.00
11647;DHT22;5880;52.342;9.662;2023-07-13T15:18:18;21.80;52.10
11647;DHT22;5880;52.342;9.662;2023-07-13T15:20:47;21.70;51.40
11647;DHT22;5880;52.342;9.662;2023-07-13T15:23:15;21.60;51.80
11647;DHT22;5880;52.342;9.662;2023-07-13T15:25:42;21.60;52.20
11647;DHT22;5880;52.342;9.662;2023-07-13T15:28:09;21.50;52.10
11647;DHT22;5880;52.342;9.662;2023-07-13T15:30:41;21.50;52.30
11647;DHT22;5880;52.342;9.662;2023-07-13T15:35:42;21.40;53.10
11647;DHT22;5880;52.342;9.662;2023-07-13T15:38:21;21.40;52.50
11647;DHT22;5880;52.342;9.662;2023-07-13T15:40:53;21.40;54.10
11647;DHT22;5880;52.342;9.662;2023-07-13T15:43:21;21.30;53.00
11647;DHT22;5880;52.342;9.662;2023-07-13T15:45:48;21.40;52.70
11647;DHT22;5880;52.342;9.662;2023-07-13T15:48:18;21.40;53.20
11647;DHT22;5880;52.342;9.662;2023-07-13T15:50:48;21.40;53.60
11647;DHT22;5880;52.342;9.662;2023-07-13T15:53:30;21.40;54.10
11647;DHT22;5880;52.342;9.662;2023-07-13T15:55:58;21.40;54.40
11647;DHT22;5880;52.342;9.662;2023-07-13T15:58:25;21.40;53.20
11647;DHT22;5880;52.342;9.662;2023-07-13T16:00:53;21.50;53.60
11647;DHT22;5880;52.342;9.662;2023-07-13T16:03:21;21.50;54.00
11647;DHT22;5880;52.342;9.662;2023-07-13T16:05:47;21.50;54.40
11647;DHT22;5880;52.342;9.662;2023-07-13T16:08:27;21.60;54.10
11647;DHT22;5880;52.342;9.662;2023-07-13T16:10:56;21.60;56.20
11647;DHT22;5880;52.342;9.662;2023-07-13T16:13:24;21.70;54.70
11647;DHT22;5880;52.342;9.662;2023-07-13T16:15:51;21.70;54.30
11647;DHT22;5880;52.342;9.662;2023-07-13T16:18:18;21.70;54.20
11647;DHT22;5880;52.342;9.662;2023-07-13T16:20:45;22.20;54.30
11647;DHT22;5880;52.342;9.662;2023-07-13T16:23:15;21.80;54.80
11647;DHT22;5880;52.342;9.662;2023-07-13T16:25:42;21.80;54.30
11647;DHT22;5880;52.342;9.662;2023-07-13T16:28:12;21.90;54.30
11647;DHT22;5880;52.342;9.662;2023-07-13T16:30:39;21.70;55.10
11647;DHT22;5880;52.342;9.662;2023-07-13T16:33:05;21.80;54.20